This is the latest recevied weather packets stored in our database for station/object DG3RAP-11. If no packets are shown the sender has not sent any weather packets the latest 10 day(s).
| Time | Temp. | Humidity | Pressure | Rain* | Wind** | Luminosity | Snow |
|---|---|---|---|---|---|---|---|
| 1777396143 | 16.67° C | 33% | 1017.4 hPa | 0 mm | - | - | - |
| 1777394163 | 17.78° C | 33% | 1016.7 hPa | 0 mm | - | - | - |
| 1777391643 | 18.33° C | 31% | 1016.7 hPa | 0 mm | - | - | - |
| 1777390563 | 18.33° C | 31% | 1016.9 hPa | 0 mm | - | - | - |
| 1777390023 | 18.33° C | 31% | 1017.1 hPa | 0 mm | - | - | - |
| 1777388943 | 18.33° C | 29% | 1016.8 hPa | 0 mm | - | - | - |
| 1777388043 | 18.89° C | 31% | 1017 hPa | 0 mm | - | - | - |
| 1777386963 | 18.89° C | 30% | 1017.1 hPa | 0 mm | - | - | - |
| 1777386423 | 18.89° C | 30% | 1017.3 hPa | 0 mm | - | - | - |
| 1777385343 | 18.89° C | 30% | 1017.2 hPa | 0 mm | - | - | - |
| 1777383363 | 18.89° C | 29% | 1017.2 hPa | 0 mm | - | - | - |
| 1777382823 | 18.89° C | 31% | 1017.4 hPa | 0 mm | - | - | - |
| 1777381743 | 18.89° C | 31% | 1017.5 hPa | 0 mm | - | - | - |
| 1777379223 | 18.89° C | 31% | 1017.8 hPa | 0 mm | - | - | - |
| 1777378143 | 18.33° C | 29% | 1017.8 hPa | 0 mm | - | - | - |
| 1777376163 | 18.33° C | 33% | 1017.8 hPa | 0 mm | - | - | - |
| 1777374543 | 17.78° C | 33% | 1018 hPa | 0 mm | - | - | - |
| 1777372563 | 18.33° C | 33% | 1018.1 hPa | 0 mm | - | - | - |
| 1777372023 | 17.78° C | 34% | 1018.2 hPa | 0 mm | - | - | - |
| 1777371483 | 18.89° C | 34% | 1018.1 hPa | 0 mm | - | - | - |
| 1777370943 | 17.22° C | 35% | 1018.4 hPa | 0 mm | - | - | - |
| 1777370403 | 17.78° C | 35% | 1018.3 hPa | 0 mm | - | - | - |
| 1777368963 | 16.67° C | 38% | 1018.5 hPa | 0 mm | - | - | - |
| 1777368423 | 16.11° C | 37% | 1018.4 hPa | 0 mm | - | - | - |
| 1777365363 | 15° C | 40% | 1018.7 hPa | 0 mm | - | - | - |
* Rain latest hour (hover to see other rain measurements)
** Current wind speed in m/s (hover to see current wind gust speed)